sensor_id;sensor_type;location;lat;lon;timestamp;P1;durP1;ratioP1;P2;durP2;ratioP2
7080;SDS011;3582;51.506;11.948;2022-07-30T00:02:07;8.77;;;7.90;;
7080;SDS011;3582;51.506;11.948;2022-07-30T00:04:33;10.23;;;8.30;;
7080;SDS011;3582;51.506;11.948;2022-07-30T00:06:59;10.20;;;8.90;;
7080;SDS011;3582;51.506;11.948;2022-07-30T00:09:27;9.27;;;8.47;;
7080;SDS011;3582;51.506;11.948;2022-07-30T00:11:53;9.53;;;8.83;;
7080;SDS011;3582;51.506;11.948;2022-07-30T00:14:19;7.97;;;7.37;;
7080;SDS011;3582;51.506;11.948;2022-07-30T00:16:45;9.60;;;8.80;;
7080;SDS011;3582;51.506;11.948;2022-07-30T00:19:11;9.03;;;8.33;;
7080;SDS011;3582;51.506;11.948;2022-07-30T00:21:37;8.43;;;7.73;;
7080;SDS011;3582;51.506;11.948;2022-07-30T00:24:04;9.17;;;8.57;;
7080;SDS011;3582;51.506;11.948;2022-07-30T00:26:30;9.10;;;8.30;;
7080;SDS011;3582;51.506;11.948;2022-07-30T00:28:56;10.53;;;9.47;;
7080;SDS011;3582;51.506;11.948;2022-07-30T00:31:22;13.40;;;9.70;;
7080;SDS011;3582;51.506;11.948;2022-07-30T00:33:48;10.10;;;9.30;;
7080;SDS011;3582;51.506;11.948;2022-07-30T00:36:13;8.87;;;8.17;;
7080;SDS011;3582;51.506;11.948;2022-07-30T00:38:39;9.03;;;8.33;;
7080;SDS011;3582;51.506;11.948;2022-07-30T00:41:05;9.37;;;8.67;;
7080;SDS011;3582;51.506;11.948;2022-07-30T00:43:31;9.90;;;9.00;;
7080;SDS011;3582;51.506;11.948;2022-07-30T00:45:57;10.37;;;9.43;;
7080;SDS011;3582;51.506;11.948;2022-07-30T00:48:23;10.90;;;9.90;;
7080;SDS011;3582;51.506;11.948;2022-07-30T00:50:49;9.47;;;8.77;;
7080;SDS011;3582;51.506;11.948;2022-07-30T00:53:15;9.73;;;8.93;;
7080;SDS011;3582;51.506;11.948;2022-07-30T00:55:41;10.77;;;9.80;;
7080;SDS011;3582;51.506;11.948;2022-07-30T00:58:07;11.43;;;10.53;;
7080;SDS011;3582;51.506;11.948;2022-07-30T01:00:33;11.97;;;9.90;;
7080;SDS011;3582;51.506;11.948;2022-07-30T01:02:59;11.77;;;9.70;;
7080;SDS011;3582;51.506;11.948;2022-07-30T01:05:25;11.33;;;10.20;;
7080;SDS011;3582;51.506;11.948;2022-07-30T01:07:51;10.73;;;9.80;;
7080;SDS011;3582;51.506;11.948;2022-07-30T01:10:17;10.20;;;9.20;;
7080;SDS011;3582;51.506;11.948;2022-07-30T01:12:43;10.20;;;9.17;;
7080;SDS011;3582;51.506;11.948;2022-07-30T01:15:10;11.23;;;10.23;;
7080;SDS011;3582;51.506;11.948;2022-07-30T01:17:36;9.87;;;9.03;;
7080;SDS011;3582;51.506;11.948;2022-07-30T01:20:04;11.20;;;10.30;;
7080;SDS011;3582;51.506;11.948;2022-07-30T01:30:26;11.97;;;11.00;;
7080;SDS011;3582;51.506;11.948;2022-07-30T01:32:53;10.93;;;9.47;;
7080;SDS011;3582;51.506;11.948;2022-07-30T01:35:20;10.57;;;9.60;;
7080;SDS011;3582;51.506;11.948;2022-07-30T01:37:46;10.67;;;9.87;;
7080;SDS011;3582;51.506;11.948;2022-07-30T01:40:13;10.57;;;9.80;;
7080;SDS011;3582;51.506;11.948;2022-07-30T01:42:39;11.33;;;10.53;;
7080;SDS011;3582;51.506;11.948;2022-07-30T01:45:06;10.93;;;10.03;;
7080;SDS011;3582;51.506;11.948;2022-07-30T01:47:33;12.17;;;11.17;;
7080;SDS011;3582;51.506;11.948;2022-07-30T01:50:00;12.37;;;11.50;;
7080;SDS011;3582;51.506;11.948;2022-07-30T01:52:27;10.50;;;9.70;;
7080;SDS011;3582;51.506;11.948;2022-07-30T01:54:55;13.10;;;12.17;;
7080;SDS011;3582;51.506;11.948;2022-07-30T01:57:21;13.23;;;11.20;;
7080;SDS011;3582;51.506;11.948;2022-07-30T01:59:48;13.30;;;12.30;;
7080;SDS011;3582;51.506;11.948;2022-07-30T02:02:14;13.53;;;12.33;;
7080;SDS011;3582;51.506;11.948;2022-07-30T02:04:40;13.23;;;12.03;;
7080;SDS011;3582;51.506;11.948;2022-07-30T02:07:13;12.60;;;11.47;;
7080;SDS011;3582;51.506;11.948;2022-07-30T02:09:43;12.97;;;11.77;;
7080;SDS011;3582;51.506;11.948;2022-07-30T02:12:12;12.67;;;11.37;;
7080;SDS011;3582;51.506;11.948;2022-07-30T02:17:25;15.57;;;12.70;;
7080;SDS011;3582;51.506;11.948;2022-07-30T02:19:53;14.00;;;12.70;;
7080;SDS011;3582;51.506;11.948;2022-07-30T02:22:21;15.83;;;14.40;;
7080;SDS011;3582;51.506;11.948;2022-07-30T02:24:48;14.33;;;13.23;;
7080;SDS011;3582;51.506;11.948;2022-07-30T02:27:23;13.20;;;12.13;;
7080;SDS011;3582;51.506;11.948;2022-07-30T02:29:50;14.40;;;13.07;;
7080;SDS011;3582;51.506;11.948;2022-07-30T02:32:18;14.43;;;13.13;;
7080;SDS011;3582;51.506;11.948;2022-07-30T02:34:45;14.70;;;13.53;;
7080;SDS011;3582;51.506;11.948;2022-07-30T02:37:12;13.70;;;12.70;;
7080;SDS011;3582;51.506;11.948;2022-07-30T02:39:39;15.43;;;14.13;;
7080;SDS011;3582;51.506;11.948;2022-07-30T02:42:06;15.07;;;13.77;;
7080;SDS011;3582;51.506;11.948;2022-07-30T02:44:33;15.57;;;14.00;;
7080;SDS011;3582;51.506;11.948;2022-07-30T02:47:00;15.80;;;14.40;;
7080;SDS011;3582;51.506;11.948;2022-07-30T02:49:27;15.70;;;14.43;;
7080;SDS011;3582;51.506;11.948;2022-07-30T02:51:54;14.77;;;13.60;;
7080;SDS011;3582;51.506;11.948;2022-07-30T02:54:20;15.80;;;14.40;;
7080;SDS011;3582;51.506;11.948;2022-07-30T02:56:47;15.63;;;14.37;;
7080;SDS011;3582;51.506;11.948;2022-07-30T02:59:14;15.03;;;13.50;;
7080;SDS011;3582;51.506;11.948;2022-07-30T03:01:41;16.40;;;15.10;;
7080;SDS011;3582;51.506;11.948;2022-07-30T03:04:07;17.63;;;15.93;;
7080;SDS011;3582;51.506;11.948;2022-07-30T03:06:34;18.37;;;16.40;;
7080;SDS011;3582;51.506;11.948;2022-07-30T03:09:01;17.40;;;15.80;;
7080;SDS011;3582;51.506;11.948;2022-07-30T03:11:27;19.90;;;18.00;;
7080;SDS011;3582;51.506;11.948;2022-07-30T03:13:53;16.63;;;15.30;;
7080;SDS011;3582;51.506;11.948;2022-07-30T03:16:20;16.83;;;15.40;;
7080;SDS011;3582;51.506;11.948;2022-07-30T03:18:46;16.00;;;14.53;;
7080;SDS011;3582;51.506;11.948;2022-07-30T03:21:13;13.87;;;12.87;;
7080;SDS011;3582;51.506;11.948;2022-07-30T03:23:40;16.53;;;15.13;;
7080;SDS011;3582;51.506;11.948;2022-07-30T03:26:07;16.33;;;14.73;;
7080;SDS011;3582;51.506;11.948;2022-07-30T03:28:35;16.37;;;14.83;;
7080;SDS011;3582;51.506;11.948;2022-07-30T03:31:03;14.77;;;13.63;;
7080;SDS011;3582;51.506;11.948;2022-07-30T03:33:30;16.67;;;15.27;;
7080;SDS011;3582;51.506;11.948;2022-07-30T03:35:56;15.77;;;14.57;;
7080;SDS011;3582;51.506;11.948;2022-07-30T03:38:22;17.03;;;15.17;;
7080;SDS011;3582;51.506;11.948;2022-07-30T03:40:49;16.10;;;14.70;;
7080;SDS011;3582;51.506;11.948;2022-07-30T03:43:15;15.70;;;14.40;;
7080;SDS011;3582;51.506;11.948;2022-07-30T03:45:43;16.03;;;14.63;;
7080;SDS011;3582;51.506;11.948;2022-07-30T03:48:10;16.13;;;14.57;;
7080;SDS011;3582;51.506;11.948;2022-07-30T03:50:37;16.77;;;15.23;;
7080;SDS011;3582;51.506;11.948;2022-07-30T03:53:04;15.90;;;14.50;;
7080;SDS011;3582;51.506;11.948;2022-07-30T03:55:31;16.70;;;15.23;;
7080;SDS011;3582;51.506;11.948;2022-07-30T03:57:57;17.97;;;16.40;;
7080;SDS011;3582;51.506;11.948;2022-07-30T04:00:23;19.70;;;17.93;;
7080;SDS011;3582;51.506;11.948;2022-07-30T04:02:49;18.80;;;17.17;;
7080;SDS011;3582;51.506;11.948;2022-07-30T04:05:15;20.97;;;18.80;;
7080;SDS011;3582;51.506;11.948;2022-07-30T04:07:41;17.03;;;15.53;;
7080;SDS011;3582;51.506;11.948;2022-07-30T04:10:08;18.23;;;16.53;;
7080;SDS011;3582;51.506;11.948;2022-07-30T04:12:34;19.40;;;17.70;;
7080;SDS011;3582;51.506;11.948;2022-07-30T04:15:00;19.37;;;17.77;;
7080;SDS011;3582;51.506;11.948;2022-07-30T04:17:28;18.47;;;16.83;;
7080;SDS011;3582;51.506;11.948;2022-07-30T04:19:56;18.00;;;16.30;;
7080;SDS011;3582;51.506;11.948;2022-07-30T04:22:31;19.50;;;17.60;;
7080;SDS011;3582;51.506;11.948;2022-07-30T04:25:01;18.23;;;16.43;;
7080;SDS011;3582;51.506;11.948;2022-07-30T04:27:28;19.90;;;17.80;;
7080;SDS011;3582;51.506;11.948;2022-07-30T04:29:55;18.33;;;16.80;;
7080;SDS011;3582;51.506;11.948;2022-07-30T04:32:21;19.83;;;18.07;;
7080;SDS011;3582;51.506;11.948;2022-07-30T04:34:51;16.10;;;14.50;;
7080;SDS011;3582;51.506;11.948;2022-07-30T04:37:20;16.73;;;15.33;;
7080;SDS011;3582;51.506;11.948;2022-07-30T04:39:46;17.10;;;14.10;;
7080;SDS011;3582;51.506;11.948;2022-07-30T04:42:15;16.07;;;14.67;;
7080;SDS011;3582;51.506;11.948;2022-07-30T04:44:41;16.53;;;15.10;;
7080;SDS011;3582;51.506;11.948;2022-07-30T04:47:07;14.90;;;13.50;;
7080;SDS011;3582;51.506;11.948;2022-07-30T04:49:33;15.97;;;14.67;;
7080;SDS011;3582;51.506;11.948;2022-07-30T04:51:59;15.67;;;14.23;;
7080;SDS011;3582;51.506;11.948;2022-07-30T04:54:25;14.03;;;12.60;;
7080;SDS011;3582;51.506;11.948;2022-07-30T04:56:52;15.30;;;13.70;;
7080;SDS011;3582;51.506;11.948;2022-07-30T04:59:19;14.67;;;13.20;;
7080;SDS011;3582;51.506;11.948;2022-07-30T05:01:47;14.73;;;13.43;;
7080;SDS011;3582;51.506;11.948;2022-07-30T05:04:14;14.83;;;12.80;;
7080;SDS011;3582;51.506;11.948;2022-07-30T05:06:40;13.67;;;12.53;;
7080;SDS011;3582;51.506;11.948;2022-07-30T05:09:07;14.03;;;12.00;;
7080;SDS011;3582;51.506;11.948;2022-07-30T05:11:33;15.17;;;13.87;;
7080;SDS011;3582;51.506;11.948;2022-07-30T05:13:59;15.70;;;14.10;;
7080;SDS011;3582;51.506;11.948;2022-07-30T05:16:25;14.30;;;13.10;;
7080;SDS011;3582;51.506;11.948;2022-07-30T05:18:51;14.67;;;12.40;;
7080;SDS011;3582;51.506;11.948;2022-07-30T05:21:17;12.63;;;11.63;;
7080;SDS011;3582;51.506;11.948;2022-07-30T05:23:43;14.57;;;12.90;;
7080;SDS011;3582;51.506;11.948;2022-07-30T05:26:09;13.07;;;11.97;;
7080;SDS011;3582;51.506;11.948;2022-07-30T05:28:35;12.93;;;11.77;;
7080;SDS011;3582;51.506;11.948;2022-07-30T05:31:01;13.40;;;12.00;;
7080;SDS011;3582;51.506;11.948;2022-07-30T05:33:27;13.10;;;11.70;;
7080;SDS011;3582;51.506;11.948;2022-07-30T05:35:53;14.00;;;12.70;;
7080;SDS011;3582;51.506;11.948;2022-07-30T05:38:19;13.20;;;12.00;;
7080;SDS011;3582;51.506;11.948;2022-07-30T05:40:45;13.53;;;11.80;;
7080;SDS011;3582;51.506;11.948;2022-07-30T05:43:11;14.47;;;12.33;;
7080;SDS011;3582;51.506;11.948;2022-07-30T05:45:37;12.80;;;11.60;;
7080;SDS011;3582;51.506;11.948;2022-07-30T05:48:03;13.33;;;12.10;;
7080;SDS011;3582;51.506;11.948;2022-07-30T05:50:30;13.33;;;12.07;;
7080;SDS011;3582;51.506;11.948;2022-07-30T05:52:56;12.27;;;11.20;;
7080;SDS011;3582;51.506;11.948;2022-07-30T05:55:22;11.50;;;10.40;;
7080;SDS011;3582;51.506;11.948;2022-07-30T05:57:48;12.03;;;10.93;;
7080;SDS011;3582;51.506;11.948;2022-07-30T06:00:14;13.93;;;11.53;;
7080;SDS011;3582;51.506;11.948;2022-07-30T06:02:40;13.10;;;12.10;;
7080;SDS011;3582;51.506;11.948;2022-07-30T06:05:06;13.53;;;11.03;;
7080;SDS011;3582;51.506;11.948;2022-07-30T06:07:32;11.70;;;10.60;;
7080;SDS011;3582;51.506;11.948;2022-07-30T06:09:59;11.00;;;9.90;;
7080;SDS011;3582;51.506;11.948;2022-07-30T06:12:28;13.60;;;12.30;;
7080;SDS011;3582;51.506;11.948;2022-07-30T06:14:54;12.33;;;10.67;;
7080;SDS011;3582;51.506;11.948;2022-07-30T06:17:20;12.83;;;11.53;;
7080;SDS011;3582;51.506;11.948;2022-07-30T06:19:46;10.30;;;9.47;;
7080;SDS011;3582;51.506;11.948;2022-07-30T06:22:13;11.17;;;10.27;;
7080;SDS011;3582;51.506;11.948;2022-07-30T06:24:39;11.10;;;10.20;;
7080;SDS011;3582;51.506;11.948;2022-07-30T06:27:05;11.70;;;10.70;;
7080;SDS011;3582;51.506;11.948;2022-07-30T06:29:31;11.20;;;10.10;;
7080;SDS011;3582;51.506;11.948;2022-07-30T06:31:57;13.57;;;10.90;;
7080;SDS011;3582;51.506;11.948;2022-07-30T06:34:23;10.80;;;9.80;;
7080;SDS011;3582;51.506;11.948;2022-07-30T06:36:49;12.70;;;9.33;;
7080;SDS011;3582;51.506;11.948;2022-07-30T06:39:15;11.80;;;10.40;;
7080;SDS011;3582;51.506;11.948;2022-07-30T06:41:41;9.50;;;8.70;;
7080;SDS011;3582;51.506;11.948;2022-07-30T06:44:07;10.70;;;9.70;;
7080;SDS011;3582;51.506;11.948;2022-07-30T06:46:33;11.27;;;10.10;;
7080;SDS011;3582;51.506;11.948;2022-07-30T06:48:59;9.83;;;9.10;;
7080;SDS011;3582;51.506;11.948;2022-07-30T06:51:25;13.03;;;9.27;;
7080;SDS011;3582;51.506;11.948;2022-07-30T06:53:51;9.87;;;8.93;;
7080;SDS011;3582;51.506;11.948;2022-07-30T06:56:17;11.93;;;9.33;;
7080;SDS011;3582;51.506;11.948;2022-07-30T06:58:43;10.10;;;8.33;;
7080;SDS011;3582;51.506;11.948;2022-07-30T07:01:09;12.93;;;9.90;;
7080;SDS011;3582;51.506;11.948;2022-07-30T07:03:35;9.47;;;8.60;;
7080;SDS011;3582;51.506;11.948;2022-07-30T07:06:01;10.07;;;9.17;;
7080;SDS011;3582;51.506;11.948;2022-07-30T07:08:29;9.13;;;8.37;;
7080;SDS011;3582;51.506;11.948;2022-07-30T07:10:55;12.23;;;9.10;;
7080;SDS011;3582;51.506;11.948;2022-07-30T07:13:21;13.33;;;8.07;;
7080;SDS011;3582;51.506;11.948;2022-07-30T07:15:47;8.93;;;8.10;;
7080;SDS011;3582;51.506;11.948;2022-07-30T07:18:13;10.17;;;9.17;;
7080;SDS011;3582;51.506;11.948;2022-07-30T07:20:39;11.73;;;9.20;;
7080;SDS011;3582;51.506;11.948;2022-07-30T07:23:07;11.00;;;9.87;;
7080;SDS011;3582;51.506;11.948;2022-07-30T07:25:33;10.23;;;8.97;;
7080;SDS011;3582;51.506;11.948;2022-07-30T07:27:59;10.20;;;9.20;;
7080;SDS011;3582;51.506;11.948;2022-07-30T07:30:25;12.23;;;11.00;;
7080;SDS011;3582;51.506;11.948;2022-07-30T07:32:51;10.77;;;9.83;;
7080;SDS011;3582;51.506;11.948;2022-07-30T07:35:17;11.07;;;10.03;;
7080;SDS011;3582;51.506;11.948;2022-07-30T07:37:43;9.47;;;8.60;;
7080;SDS011;3582;51.506;11.948;2022-07-30T07:40:09;10.97;;;9.93;;
7080;SDS011;3582;51.506;11.948;2022-07-30T07:42:35;9.37;;;8.67;;
7080;SDS011;3582;51.506;11.948;2022-07-30T07:45:01;9.77;;;8.97;;
7080;SDS011;3582;51.506;11.948;2022-07-30T07:47:27;11.60;;;10.60;;
7080;SDS011;3582;51.506;11.948;2022-07-30T07:49:53;11.53;;;8.40;;
7080;SDS011;3582;51.506;11.948;2022-07-30T07:52:20;14.10;;;11.03;;
7080;SDS011;3582;51.506;11.948;2022-07-30T07:54:46;11.03;;;9.43;;
7080;SDS011;3582;51.506;11.948;2022-07-30T07:57:11;10.50;;;9.80;;
7080;SDS011;3582;51.506;11.948;2022-07-30T07:59:37;12.10;;;9.47;;
7080;SDS011;3582;51.506;11.948;2022-07-30T08:02:03;10.43;;;9.60;;
7080;SDS011;3582;51.506;11.948;2022-07-30T08:04:29;11.93;;;10.73;;
7080;SDS011;3582;51.506;11.948;2022-07-30T08:06:55;11.10;;;10.20;;
7080;SDS011;3582;51.506;11.948;2022-07-30T08:09:21;10.90;;;9.80;;
7080;SDS011;3582;51.506;11.948;2022-07-30T08:11:47;11.77;;;10.23;;
7080;SDS011;3582;51.506;11.948;2022-07-30T08:14:13;10.80;;;9.70;;
7080;SDS011;3582;51.506;11.948;2022-07-30T08:16:39;11.10;;;10.20;;
7080;SDS011;3582;51.506;11.948;2022-07-30T08:19:05;12.50;;;11.30;;
7080;SDS011;3582;51.506;11.948;2022-07-30T08:21:31;12.23;;;10.90;;
7080;SDS011;3582;51.506;11.948;2022-07-30T08:23:57;12.10;;;11.00;;
7080;SDS011;3582;51.506;11.948;2022-07-30T08:26:23;11.80;;;10.90;;
7080;SDS011;3582;51.506;11.948;2022-07-30T08:28:49;12.00;;;10.80;;
7080;SDS011;3582;51.506;11.948;2022-07-30T08:31:15;11.57;;;10.50;;
7080;SDS011;3582;51.506;11.948;2022-07-30T08:33:41;16.60;;;11.23;;
7080;SDS011;3582;51.506;11.948;2022-07-30T08:36:07;13.37;;;12.07;;
7080;SDS011;3582;51.506;11.948;2022-07-30T08:38:33;12.50;;;11.33;;
7080;SDS011;3582;51.506;11.948;2022-07-30T08:40:59;15.27;;;12.07;;
7080;SDS011;3582;51.506;11.948;2022-07-30T08:43:25;13.47;;;12.07;;
7080;SDS011;3582;51.506;11.948;2022-07-30T08:45:51;13.23;;;11.93;;
7080;SDS011;3582;51.506;11.948;2022-07-30T08:48:19;13.97;;;12.67;;
7080;SDS011;3582;51.506;11.948;2022-07-30T08:50:46;13.70;;;12.43;;
7080;SDS011;3582;51.506;11.948;2022-07-30T08:53:13;13.17;;;11.97;;
7080;SDS011;3582;51.506;11.948;2022-07-30T08:55:39;13.00;;;12.00;;
7080;SDS011;3582;51.506;11.948;2022-07-30T08:58:09;13.67;;;12.27;;
7080;SDS011;3582;51.506;11.948;2022-07-30T09:00:36;12.70;;;11.70;;
7080;SDS011;3582;51.506;11.948;2022-07-30T09:03:02;15.70;;;13.30;;
7080;SDS011;3582;51.506;11.948;2022-07-30T09:05:28;15.57;;;14.17;;
7080;SDS011;3582;51.506;11.948;2022-07-30T09:07:54;13.00;;;11.90;;
7080;SDS011;3582;51.506;11.948;2022-07-30T09:10:20;14.67;;;13.27;;
7080;SDS011;3582;51.506;11.948;2022-07-30T09:12:48;13.57;;;12.37;;
7080;SDS011;3582;51.506;11.948;2022-07-30T09:15:15;14.27;;;12.67;;
7080;SDS011;3582;51.506;11.948;2022-07-30T09:17:58;13.83;;;12.53;;
7080;SDS011;3582;51.506;11.948;2022-07-30T09:20:26;17.40;;;14.90;;
7080;SDS011;3582;51.506;11.948;2022-07-30T09:22:53;14.27;;;12.87;;
7080;SDS011;3582;51.506;11.948;2022-07-30T09:27:57;13.57;;;12.43;;
7080;SDS011;3582;51.506;11.948;2022-07-30T09:30:23;19.10;;;16.90;;
7080;SDS011;3582;51.506;11.948;2022-07-30T09:32:53;15.07;;;13.83;;
7080;SDS011;3582;51.506;11.948;2022-07-30T09:35:20;15.80;;;14.30;;
7080;SDS011;3582;51.506;11.948;2022-07-30T09:37:46;18.63;;;14.00;;
7080;SDS011;3582;51.506;11.948;2022-07-30T09:40:22;14.57;;;12.80;;
7080;SDS011;3582;51.506;11.948;2022-07-30T09:42:48;14.43;;;13.23;;
7080;SDS011;3582;51.506;11.948;2022-07-30T09:45:25;14.33;;;12.93;;
7080;SDS011;3582;51.506;11.948;2022-07-30T09:47:51;13.83;;;12.37;;
7080;SDS011;3582;51.506;11.948;2022-07-30T09:50:18;14.63;;;13.17;;
7080;SDS011;3582;51.506;11.948;2022-07-30T09:52:44;14.17;;;13.07;;
7080;SDS011;3582;51.506;11.948;2022-07-30T09:55:12;16.03;;;14.63;;
7080;SDS011;3582;51.506;11.948;2022-07-30T09:57:54;17.23;;;15.47;;
7080;SDS011;3582;51.506;11.948;2022-07-30T10:00:22;19.43;;;16.40;;
7080;SDS011;3582;51.506;11.948;2022-07-30T10:02:48;19.63;;;17.77;;
7080;SDS011;3582;51.506;11.948;2022-07-30T10:05:16;17.13;;;15.63;;
7080;SDS011;3582;51.506;11.948;2022-07-30T10:07:50;17.27;;;15.50;;
7080;SDS011;3582;51.506;11.948;2022-07-30T10:10:20;17.23;;;15.63;;
7080;SDS011;3582;51.506;11.948;2022-07-30T10:12:47;17.07;;;15.50;;
7080;SDS011;3582;51.506;11.948;2022-07-30T10:15:15;17.23;;;15.40;;
7080;SDS011;3582;51.506;11.948;2022-07-30T10:17:43;16.63;;;15.23;;
7080;SDS011;3582;51.506;11.948;2022-07-30T10:20:09;16.47;;;15.00;;
7080;SDS011;3582;51.506;11.948;2022-07-30T10:22:36;16.23;;;14.50;;
7080;SDS011;3582;51.506;11.948;2022-07-30T10:25:03;15.10;;;13.57;;
7080;SDS011;3582;51.506;11.948;2022-07-30T10:27:29;15.47;;;14.07;;
7080;SDS011;3582;51.506;11.948;2022-07-30T10:29:56;16.40;;;15.00;;
7080;SDS011;3582;51.506;11.948;2022-07-30T10:32:24;15.73;;;12.70;;
7080;SDS011;3582;51.506;11.948;2022-07-30T10:34:50;14.90;;;13.60;;
7080;SDS011;3582;51.506;11.948;2022-07-30T10:37:17;17.77;;;16.17;;
7080;SDS011;3582;51.506;11.948;2022-07-30T10:39:45;16.67;;;15.17;;
7080;SDS011;3582;51.506;11.948;2022-07-30T10:42:22;15.47;;;14.10;;
7080;SDS011;3582;51.506;11.948;2022-07-30T10:47:55;17.23;;;15.93;;
7080;SDS011;3582;51.506;11.948;2022-07-30T10:50:22;14.93;;;13.83;;
7080;SDS011;3582;51.506;11.948;2022-07-30T10:52:54;17.90;;;16.30;;
7080;SDS011;3582;51.506;11.948;2022-07-30T10:55:21;18.60;;;17.00;;
7080;SDS011;3582;51.506;11.948;2022-07-30T10:58:07;17.40;;;15.90;;
7080;SDS011;3582;51.506;11.948;2022-07-30T11:03:21;16.13;;;14.43;;
7080;SDS011;3582;51.506;11.948;2022-07-30T11:05:48;16.97;;;15.17;;
7080;SDS011;3582;51.506;11.948;2022-07-30T11:10:52;18.47;;;16.57;;
7080;SDS011;3582;51.506;11.948;2022-07-30T11:13:23;18.70;;;16.90;;
7080;SDS011;3582;51.506;11.948;2022-07-30T11:16:04;17.40;;;16.00;;
7080;SDS011;3582;51.506;11.948;2022-07-30T11:18:30;17.80;;;15.93;;
7080;SDS011;3582;51.506;11.948;2022-07-30T11:21:17;17.20;;;15.60;;
7080;SDS011;3582;51.506;11.948;2022-07-30T11:23:44;17.73;;;16.33;;
7080;SDS011;3582;51.506;11.948;2022-07-30T11:26:45;18.97;;;17.03;;
7080;SDS011;3582;51.506;11.948;2022-07-30T11:28:56;16.63;;;15.10;;
7080;SDS011;3582;51.506;11.948;2022-07-30T11:31:30;17.77;;;15.83;;
7080;SDS011;3582;51.506;11.948;2022-07-30T11:37:01;15.67;;;14.30;;
7080;SDS011;3582;51.506;11.948;2022-07-30T11:42:28;17.20;;;15.60;;
7080;SDS011;3582;51.506;11.948;2022-07-30T11:47:39;16.50;;;13.80;;
7080;SDS011;3582;51.506;11.948;2022-07-30T11:50:05;14.43;;;13.23;;
7080;SDS011;3582;51.506;11.948;2022-07-30T11:52:31;14.20;;;12.80;;
7080;SDS011;3582;51.506;11.948;2022-07-30T11:54:58;14.10;;;13.00;;
7080;SDS011;3582;51.506;11.948;2022-07-30T11:57:40;13.13;;;11.93;;
7080;SDS011;3582;51.506;11.948;2022-07-30T12:00:06;16.30;;;13.53;;
7080;SDS011;3582;51.506;11.948;2022-07-30T12:02:32;14.23;;;12.83;;
7080;SDS011;3582;51.506;11.948;2022-07-30T12:04:58;12.87;;;11.67;;
7080;SDS011;3582;51.506;11.948;2022-07-30T12:07:24;13.83;;;12.60;;
7080;SDS011;3582;51.506;11.948;2022-07-30T12:09:50;13.90;;;12.37;;
7080;SDS011;3582;51.506;11.948;2022-07-30T12:12:23;15.50;;;11.80;;
7080;SDS011;3582;51.506;11.948;2022-07-30T12:14:49;12.90;;;11.80;;
7080;SDS011;3582;51.506;11.948;2022-07-30T12:17:15;13.07;;;12.00;;
7080;SDS011;3582;51.506;11.948;2022-07-30T12:19:45;13.73;;;12.50;;
7080;SDS011;3582;51.506;11.948;2022-07-30T12:22:11;12.63;;;11.60;;
7080;SDS011;3582;51.506;11.948;2022-07-30T12:24:37;12.17;;;11.03;;
7080;SDS011;3582;51.506;11.948;2022-07-30T12:27:04;11.40;;;10.60;;
7080;SDS011;3582;51.506;11.948;2022-07-30T12:29:30;13.13;;;12.03;;
7080;SDS011;3582;51.506;11.948;2022-07-30T12:31:56;11.57;;;10.53;;
7080;SDS011;3582;51.506;11.948;2022-07-30T12:34:23;14.23;;;10.90;;
7080;SDS011;3582;51.506;11.948;2022-07-30T12:36:49;11.13;;;10.13;;
7080;SDS011;3582;51.506;11.948;2022-07-30T12:39:22;14.23;;;10.20;;
7080;SDS011;3582;51.506;11.948;2022-07-30T12:41:49;15.53;;;10.50;;
7080;SDS011;3582;51.506;11.948;2022-07-30T12:47:00;10.00;;;9.00;;
7080;SDS011;3582;51.506;11.948;2022-07-30T12:49:29;9.83;;;8.77;;
7080;SDS011;3582;51.506;11.948;2022-07-30T12:51:56;12.50;;;10.33;;
7080;SDS011;3582;51.506;11.948;2022-07-30T12:54:21;11.53;;;10.43;;
7080;SDS011;3582;51.506;11.948;2022-07-30T12:57:00;11.30;;;10.10;;
7080;SDS011;3582;51.506;11.948;2022-07-30T12:59:27;11.67;;;8.90;;
7080;SDS011;3582;51.506;11.948;2022-07-30T13:01:54;9.50;;;8.80;;
7080;SDS011;3582;51.506;11.948;2022-07-30T13:04:21;8.20;;;7.60;;
7080;SDS011;3582;51.506;11.948;2022-07-30T13:09:28;8.80;;;8.00;;
7080;SDS011;3582;51.506;11.948;2022-07-30T13:11:54;9.13;;;8.10;;
7080;SDS011;3582;51.506;11.948;2022-07-30T13:14:20;10.03;;;8.60;;
7080;SDS011;3582;51.506;11.948;2022-07-30T13:16:46;8.50;;;7.80;;
7080;SDS011;3582;51.506;11.948;2022-07-30T13:19:12;10.33;;;9.30;;
7080;SDS011;3582;51.506;11.948;2022-07-30T13:21:38;11.17;;;10.03;;
7080;SDS011;3582;51.506;11.948;2022-07-30T13:24:05;9.70;;;8.90;;
7080;SDS011;3582;51.506;11.948;2022-07-30T13:26:35;9.80;;;9.00;;
7080;SDS011;3582;51.506;11.948;2022-07-30T13:29:01;12.13;;;9.20;;
7080;SDS011;3582;51.506;11.948;2022-07-30T13:31:27;9.53;;;8.73;;
7080;SDS011;3582;51.506;11.948;2022-07-30T13:33:53;9.73;;;8.83;;
7080;SDS011;3582;51.506;11.948;2022-07-30T13:36:19;9.80;;;8.90;;
7080;SDS011;3582;51.506;11.948;2022-07-30T13:38:45;10.63;;;9.57;;
7080;SDS011;3582;51.506;11.948;2022-07-30T13:41:11;9.20;;;8.43;;
7080;SDS011;3582;51.506;11.948;2022-07-30T13:43:37;9.90;;;9.00;;
7080;SDS011;3582;51.506;11.948;2022-07-30T13:46:04;8.63;;;7.93;;
7080;SDS011;3582;51.506;11.948;2022-07-30T13:48:30;9.87;;;9.13;;
7080;SDS011;3582;51.506;11.948;2022-07-30T13:50:56;9.37;;;8.47;;
7080;SDS011;3582;51.506;11.948;2022-07-30T13:53:22;7.83;;;7.20;;
7080;SDS011;3582;51.506;11.948;2022-07-30T13:55:48;8.03;;;7.40;;
7080;SDS011;3582;51.506;11.948;2022-07-30T13:58:14;10.90;;;8.87;;
7080;SDS011;3582;51.506;11.948;2022-07-30T14:00:40;9.97;;;9.10;;
7080;SDS011;3582;51.506;11.948;2022-07-30T14:03:09;10.73;;;9.63;;
7080;SDS011;3582;51.506;11.948;2022-07-30T14:05:35;8.40;;;7.90;;
7080;SDS011;3582;51.506;11.948;2022-07-30T14:08:02;8.37;;;7.63;;
7080;SDS011;3582;51.506;11.948;2022-07-30T14:10:28;8.23;;;7.40;;
7080;SDS011;3582;51.506;11.948;2022-07-30T14:12:54;8.80;;;7.93;;
7080;SDS011;3582;51.506;11.948;2022-07-30T14:15:21;9.30;;;8.60;;
7080;SDS011;3582;51.506;11.948;2022-07-30T14:17:47;8.60;;;7.80;;
7080;SDS011;3582;51.506;11.948;2022-07-30T14:20:13;15.73;;;8.70;;
7080;SDS011;3582;51.506;11.948;2022-07-30T14:22:39;10.37;;;8.40;;
7080;SDS011;3582;51.506;11.948;2022-07-30T14:25:06;8.93;;;8.03;;
7080;SDS011;3582;51.506;11.948;2022-07-30T14:27:32;8.07;;;7.47;;
7080;SDS011;3582;51.506;11.948;2022-07-30T14:29:58;8.40;;;7.80;;
7080;SDS011;3582;51.506;11.948;2022-07-30T14:32:24;9.20;;;8.00;;
7080;SDS011;3582;51.506;11.948;2022-07-30T14:34:50;9.40;;;8.50;;
7080;SDS011;3582;51.506;11.948;2022-07-30T14:37:16;8.43;;;7.70;;
7080;SDS011;3582;51.506;11.948;2022-07-30T14:39:42;7.67;;;7.13;;
7080;SDS011;3582;51.506;11.948;2022-07-30T14:42:08;7.70;;;6.90;;
7080;SDS011;3582;51.506;11.948;2022-07-30T14:44:34;9.00;;;8.10;;
7080;SDS011;3582;51.506;11.948;2022-07-30T14:47:01;9.23;;;7.43;;
7080;SDS011;3582;51.506;11.948;2022-07-30T14:49:26;8.50;;;7.87;;
7080;SDS011;3582;51.506;11.948;2022-07-30T14:51:52;9.30;;;8.47;;
7080;SDS011;3582;51.506;11.948;2022-07-30T14:54:18;9.53;;;6.87;;
7080;SDS011;3582;51.506;11.948;2022-07-30T14:56:44;9.07;;;8.20;;
7080;SDS011;3582;51.506;11.948;2022-07-30T14:59:10;7.23;;;6.70;;
7080;SDS011;3582;51.506;11.948;2022-07-30T15:01:37;7.30;;;6.70;;
7080;SDS011;3582;51.506;11.948;2022-07-30T15:04:03;6.50;;;6.10;;
7080;SDS011;3582;51.506;11.948;2022-07-30T15:06:33;7.67;;;7.07;;
7080;SDS011;3582;51.506;11.948;2022-07-30T15:08:59;7.60;;;7.00;;
7080;SDS011;3582;51.506;11.948;2022-07-30T15:11:25;9.10;;;6.67;;
7080;SDS011;3582;51.506;11.948;2022-07-30T15:13:51;9.10;;;8.30;;
7080;SDS011;3582;51.506;11.948;2022-07-30T15:16:17;7.60;;;7.10;;